createdAt,value
2023-01-27T00:00:27.725Z,25.33
2023-01-27T00:02:54.490Z,23.17
2023-01-27T00:05:22.160Z,20.17
2023-01-27T00:07:49.752Z,20.43
2023-01-27T00:10:20.173Z,26.23
2023-01-27T00:13:26.646Z,28.27
2023-01-27T00:15:54.309Z,22.50
2023-01-27T00:18:21.011Z,24.03
2023-01-27T00:21:06.451Z,22.97
2023-01-27T00:23:51.812Z,23.23
2023-01-27T00:26:19.469Z,24.03
2023-01-27T00:28:47.378Z,24.80
2023-01-27T00:31:35.769Z,23.83
2023-01-27T00:34:09.220Z,25.33
2023-01-27T00:36:37.567Z,25.63
2023-01-27T00:39:05.584Z,25.70
2023-01-27T00:41:33.966Z,28.90
2023-01-27T00:44:01.588Z,26.47
2023-01-27T00:46:28.534Z,27.10
2023-01-27T00:48:55.163Z,29.95
2023-01-27T00:51:22.204Z,27.17
2023-01-27T00:53:49.205Z,23.27
2023-01-27T00:56:16.174Z,26.47
2023-01-27T00:58:42.815Z,24.63
2023-01-27T01:01:13.977Z,24.50
2023-01-27T01:03:40.988Z,25.23
2023-01-27T01:06:10.309Z,23.67
2023-01-27T01:08:38.005Z,24.43
2023-01-27T01:11:06.157Z,21.23
2023-01-27T01:13:32.952Z,26.03
2023-01-27T01:16:09.033Z,24.23
2023-01-27T01:18:35.783Z,22.53
2023-01-27T01:21:02.730Z,19.93
2023-01-27T01:23:29.429Z,21.43
2023-01-27T01:25:57.184Z,21.73
2023-01-27T01:28:25.229Z,17.37
2023-01-27T01:30:52.425Z,18.80
2023-01-27T01:33:19.102Z,17.03
2023-01-27T01:35:45.855Z,18.63
2023-01-27T01:38:12.628Z,16.03
2023-01-27T01:40:44.339Z,17.77
2023-01-27T01:43:14.625Z,16.33
2023-01-27T01:45:47.388Z,14.47
2023-01-27T01:48:32.183Z,16.67
2023-01-27T01:51:08.267Z,17.30
2023-01-27T01:53:40.109Z,17.37
2023-01-27T01:56:16.555Z,17.93
2023-01-27T01:58:45.259Z,17.83
2023-01-27T02:01:15.053Z,18.00
2023-01-27T02:03:44.573Z,19.00
2023-01-27T02:06:11.874Z,15.93
2023-01-27T02:08:41.379Z,19.57
2023-01-27T02:11:11.197Z,17.13
2023-01-27T02:13:39.209Z,17.77
2023-01-27T02:16:06.521Z,17.90
2023-01-27T02:18:33.213Z,17.83
2023-01-27T02:21:00.199Z,15.47
2023-01-27T02:23:35.747Z,18.73
2023-01-27T02:26:19.189Z,17.53
2023-01-27T02:28:45.999Z,17.03
2023-01-27T02:31:12.876Z,19.53
2023-01-27T02:33:39.535Z,22.80
2023-01-27T02:36:06.648Z,22.27
2023-01-27T02:38:37.205Z,19.80
2023-01-27T02:41:11.977Z,22.80
2023-01-27T02:43:38.565Z,22.33
2023-01-27T02:46:05.452Z,21.70
2023-01-27T02:48:32.037Z,18.63
2023-01-27T02:50:58.733Z,19.13
2023-01-27T02:53:25.387Z,20.10
2023-01-27T02:55:52.040Z,18.53
2023-01-27T02:58:18.664Z,21.20
2023-01-27T03:00:45.470Z,23.20
2023-01-27T03:03:12.150Z,18.80
2023-01-27T03:05:40.163Z,17.97
2023-01-27T03:08:07.065Z,17.60
2023-01-27T03:10:33.840Z,17.30
2023-01-27T03:13:00.508Z,20.13
2023-01-27T03:15:46.040Z,20.70
2023-01-27T03:18:13.339Z,20.10
2023-01-27T03:20:41.245Z,19.87
2023-01-27T03:23:08.208Z,20.63
2023-01-27T03:25:35.259Z,20.53
2023-01-27T03:28:02.504Z,20.13
2023-01-27T03:30:29.532Z,22.43
2023-01-27T03:32:58.323Z,23.33
2023-01-27T03:35:34.335Z,25.70
2023-01-27T03:38:20.201Z,22.83
2023-01-27T03:41:05.629Z,26.23
2023-01-27T03:43:52.122Z,23.23
2023-01-27T03:46:22.178Z,22.27
2023-01-27T03:48:56.050Z,20.97
2023-01-27T03:51:24.760Z,22.80
2023-01-27T03:53:51.876Z,23.07
2023-01-27T03:56:20.432Z,22.90
2023-01-27T03:58:48.583Z,23.77
2023-01-27T04:01:20.958Z,20.73
2023-01-27T04:04:08.362Z,23.23
2023-01-27T04:06:52.202Z,21.63
2023-01-27T04:09:30.478Z,24.63
2023-01-27T04:11:58.999Z,23.57
2023-01-27T04:14:30.006Z,23.93
2023-01-27T04:16:59.305Z,21.50
2023-01-27T04:19:26.256Z,24.60
2023-01-27T04:21:53.453Z,23.63
2023-01-27T04:24:23.577Z,26.47
2023-01-27T04:26:54.666Z,24.63
2023-01-27T04:29:23.956Z,24.60
2023-01-27T04:31:50.786Z,21.67
2023-01-27T04:34:18.423Z,21.67
2023-01-27T04:36:45.279Z,23.43
2023-01-27T04:39:13.606Z,23.70
2023-01-27T04:41:40.535Z,23.27
2023-01-27T04:44:07.605Z,24.67
2023-01-27T04:46:34.829Z,21.10
2023-01-27T04:49:01.631Z,23.40
2023-01-27T04:51:28.834Z,24.03
2023-01-27T04:53:55.799Z,26.90
2023-01-27T04:56:32.474Z,24.37
2023-01-27T04:59:04.198Z,21.90
2023-01-27T05:01:30.892Z,24.10
2023-01-27T05:03:58.077Z,22.93
2023-01-27T05:06:25.631Z,25.03
2023-01-27T05:08:52.655Z,23.70
2023-01-27T05:11:19.968Z,26.13
2023-01-27T05:13:46.795Z,24.70
2023-01-27T05:16:16.655Z,24.40
2023-01-27T05:18:45.439Z,26.47
2023-01-27T05:21:15.012Z,24.00
2023-01-27T05:23:42.096Z,23.00
2023-01-27T05:26:14.592Z,22.30
2023-01-27T05:28:44.896Z,21.63
2023-01-27T05:31:20.468Z,25.50
2023-01-27T05:33:49.551Z,25.23
2023-01-27T05:36:18.220Z,28.73
2023-01-27T05:38:45.287Z,28.03
2023-01-27T05:41:13.876Z,26.23
2023-01-27T05:43:42.536Z,28.73
2023-01-27T05:46:12.971Z,29.85
2023-01-27T05:48:42.191Z,28.00
2023-01-27T05:51:09.895Z,26.57
2023-01-27T05:53:36.723Z,25.57
2023-01-27T05:56:04.803Z,27.23
2023-01-27T05:58:32.103Z,26.47
2023-01-27T06:01:12.419Z,27.13
2023-01-27T06:03:39.850Z,26.83
2023-01-27T06:06:07.989Z,25.13
2023-01-27T06:08:34.698Z,27.77
2023-01-27T06:11:01.983Z,24.10
2023-01-27T06:13:28.668Z,25.57
2023-01-27T06:15:55.977Z,27.77
2023-01-27T06:18:23.283Z,24.83
2023-01-27T06:20:50.203Z,22.73
2023-01-27T06:23:18.172Z,24.30
2023-01-27T06:25:49.310Z,24.37
2023-01-27T06:28:28.268Z,21.37
2023-01-27T06:30:55.957Z,20.33
2023-01-27T06:33:22.667Z,20.97
2023-01-27T06:35:49.432Z,21.87
2023-01-27T06:38:16.084Z,22.53
2023-01-27T06:40:43.526Z,20.87
2023-01-27T06:43:12.936Z,23.37
2023-01-27T06:45:39.600Z,23.27
2023-01-27T06:48:08.272Z,21.40
2023-01-27T06:50:35.803Z,22.17
2023-01-27T06:53:05.516Z,20.23
2023-01-27T06:55:32.791Z,21.70
2023-01-27T06:58:00.829Z,21.00
2023-01-27T07:00:27.400Z,21.70
2023-01-27T07:02:57.442Z,20.63
2023-01-27T07:05:24.867Z,21.97
2023-01-27T07:07:51.797Z,21.53
2023-01-27T07:10:18.682Z,21.73
2023-01-27T07:12:45.425Z,20.20
2023-01-27T07:15:12.872Z,21.63
2023-01-27T07:17:39.662Z,22.27
2023-01-27T07:20:08.143Z,20.20
2023-01-27T07:22:34.737Z,22.23
2023-01-27T07:25:02.183Z,21.67
2023-01-27T07:27:29.507Z,21.17
2023-01-27T07:29:56.197Z,23.90
2023-01-27T07:32:22.789Z,21.90
2023-01-27T07:34:49.405Z,23.07
2023-01-27T07:37:16.407Z,22.03
2023-01-27T07:39:42.986Z,21.50
2023-01-27T07:42:10.246Z,20.10
2023-01-27T07:44:37.155Z,19.30
2023-01-27T07:47:03.873Z,18.20
2023-01-27T07:49:30.426Z,19.07
2023-01-27T07:51:56.998Z,16.73
2023-01-27T07:54:25.107Z,20.13
2023-01-27T07:56:51.662Z,20.13
2023-01-27T07:59:18.318Z,17.00
2023-01-27T08:01:46.499Z,19.00
2023-01-27T08:04:14.395Z,16.13
2023-01-27T08:06:40.978Z,17.03
2023-01-27T08:09:07.567Z,17.67
2023-01-27T08:11:34.420Z,17.00
2023-01-27T08:14:01.107Z,18.10
2023-01-27T08:16:28.204Z,19.37
2023-01-27T08:18:55.045Z,15.67
2023-01-27T08:21:22.237Z,18.73
2023-01-27T08:23:48.963Z,17.43
2023-01-27T08:26:15.563Z,16.47
2023-01-27T08:28:42.142Z,16.53
2023-01-27T08:31:12.066Z,15.63
2023-01-27T08:33:39.485Z,14.87
2023-01-27T08:36:10.665Z,16.87
2023-01-27T08:38:38.016Z,15.70
2023-01-27T08:41:10.188Z,17.50
2023-01-27T08:43:37.502Z,16.10
2023-01-27T08:46:04.758Z,16.33
2023-01-27T08:48:31.827Z,21.17
2023-01-27T08:50:59.909Z,18.20
2023-01-27T08:53:27.317Z,22.07
2023-01-27T08:55:57.179Z,20.30
2023-01-27T08:58:24.585Z,22.57
2023-01-27T09:00:51.813Z,20.60
2023-01-27T09:03:18.806Z,20.60
2023-01-27T09:05:46.735Z,20.33
2023-01-27T09:08:13.374Z,21.90
2023-01-27T09:10:41.400Z,20.33
2023-01-27T09:13:08.834Z,23.97
2023-01-27T09:15:44.778Z,22.80
2023-01-27T09:18:11.454Z,19.77
2023-01-27T09:20:39.463Z,20.47
2023-01-27T09:23:06.117Z,22.40
2023-01-27T09:25:32.724Z,22.53
2023-01-27T09:28:00.275Z,24.27
2023-01-27T09:30:28.163Z,21.50
2023-01-27T09:32:59.082Z,20.40
2023-01-27T09:35:27.300Z,21.37
2023-01-27T09:37:58.858Z,20.63
2023-01-27T09:40:30.462Z,18.43
2023-01-27T09:43:39.700Z,18.00
2023-01-27T09:46:47.291Z,22.30
2023-01-27T09:49:35.672Z,20.27
2023-01-27T09:52:32.817Z,19.10
2023-01-27T09:55:29.732Z,21.93
2023-01-27T09:58:17.489Z,18.47
2023-01-27T10:01:07.278Z,19.63
2023-01-27T10:03:57.046Z,21.60
2023-01-27T10:06:56.442Z,23.57
2023-01-27T10:09:22.959Z,21.83
2023-01-27T10:12:03.587Z,22.67
2023-01-27T10:14:47.730Z,16.67
2023-01-27T10:17:29.876Z,17.30
2023-01-27T10:20:22.465Z,16.83
2023-01-27T10:23:09.755Z,17.43
2023-01-27T10:25:39.428Z,16.50
2023-01-27T10:28:14.971Z,16.00
2023-01-27T10:31:01.986Z,18.30
2023-01-27T10:33:52.612Z,16.60
2023-01-27T10:36:44.404Z,15.70
2023-01-27T10:39:56.391Z,14.60
2023-01-27T10:42:36.013Z,15.43
2023-01-27T10:45:20.855Z,17.33
2023-01-27T10:48:21.861Z,15.07
2023-01-27T10:51:08.648Z,16.83
2023-01-27T10:53:57.517Z,15.10
2023-01-27T10:56:35.681Z,15.63
2023-01-27T10:59:29.745Z,14.57
2023-01-27T11:02:15.144Z,15.20
2023-01-27T11:04:56.082Z,14.30
2023-01-27T11:07:23.650Z,16.20
2023-01-27T11:09:59.503Z,14.77
2023-01-27T11:12:35.438Z,16.13
2023-01-27T11:15:29.043Z,14.63
2023-01-27T11:18:04.507Z,14.57
2023-01-27T11:20:39.614Z,12.53
2023-01-27T11:23:19.657Z,13.10
2023-01-27T11:26:12.551Z,13.27
2023-01-27T11:29:19.649Z,13.53
2023-01-27T11:32:04.913Z,12.27
2023-01-27T11:34:46.420Z,12.93
2023-01-27T11:37:35.913Z,12.40
2023-01-27T11:40:04.195Z,15.37
2023-01-27T11:42:34.513Z,11.73
2023-01-27T11:45:02.384Z,14.87
2023-01-27T11:47:38.914Z,13.80
2023-01-27T11:50:06.105Z,13.63
2023-01-27T11:52:32.775Z,16.07
2023-01-27T11:55:24.839Z,15.30
2023-01-27T11:58:07.524Z,16.83
2023-01-27T12:00:43.923Z,19.70
2023-01-27T12:03:23.195Z,16.67
2023-01-27T12:05:55.773Z,18.70
2023-01-27T12:08:42.328Z,16.07
2023-01-27T12:11:18.086Z,16.40
2023-01-27T12:13:59.858Z,16.60
2023-01-27T12:16:44.588Z,17.70
2023-01-27T12:19:22.692Z,18.87
2023-01-27T12:21:56.095Z,15.60
2023-01-27T12:24:35.286Z,17.00
2023-01-27T12:27:03.952Z,16.17
2023-01-27T12:29:46.081Z,19.57
2023-01-27T12:32:20.255Z,19.20
2023-01-27T12:34:50.406Z,17.00
2023-01-27T12:37:33.491Z,16.53
2023-01-27T12:40:03.581Z,17.40
2023-01-27T12:42:36.322Z,18.03
2023-01-27T12:45:24.772Z,18.13
2023-01-27T12:48:18.776Z,22.43
2023-01-27T12:50:51.190Z,18.93
2023-01-27T12:53:22.919Z,21.87
2023-01-27T12:55:55.942Z,22.00
2023-01-27T12:58:40.657Z,22.27
2023-01-27T13:01:23.162Z,21.50
2023-01-27T13:03:57.072Z,25.27
2023-01-27T13:06:42.421Z,23.07
2023-01-27T13:09:27.587Z,21.53
2023-01-27T13:11:58.215Z,22.10
2023-01-27T13:14:29.981Z,24.80
2023-01-27T13:17:02.058Z,23.30
2023-01-27T13:19:43.654Z,22.37
2023-01-27T13:22:18.785Z,19.37
2023-01-27T13:24:47.252Z,17.40
2023-01-27T13:27:17.551Z,19.07
2023-01-27T13:29:56.054Z,17.73
2023-01-27T13:32:28.271Z,19.90
2023-01-27T13:35:13.587Z,19.03
2023-01-27T13:38:08.023Z,18.07
2023-01-27T13:40:41.506Z,18.00
2023-01-27T13:43:29.143Z,18.33
2023-01-27T13:46:17.490Z,18.73
2023-01-27T13:48:54.251Z,17.67
2023-01-27T13:51:24.683Z,18.90
2023-01-27T13:54:04.497Z,22.23
2023-01-27T13:57:02.158Z,16.83
2023-01-27T13:59:57.849Z,17.33
2023-01-27T14:02:42.363Z,14.53
2023-01-27T14:05:59.539Z,16.03
2023-01-27T14:08:58.806Z,14.67
2023-01-27T14:11:33.888Z,15.73
2023-01-27T14:14:24.193Z,15.93
2023-01-27T14:17:08.965Z,14.70
2023-01-27T14:19:57.125Z,14.20
2023-01-27T14:22:34.676Z,14.97
2023-01-27T14:25:22.200Z,15.53
2023-01-27T14:27:58.120Z,14.60
2023-01-27T14:30:30.317Z,14.30
2023-01-27T14:33:29.131Z,15.63
2023-01-27T14:36:16.343Z,16.03
2023-01-27T14:38:49.710Z,16.40
2023-01-27T14:41:26.660Z,15.70
2023-01-27T14:44:15.070Z,15.70
2023-01-27T14:47:14.870Z,14.67
2023-01-27T14:50:25.608Z,16.70
2023-01-27T14:53:24.521Z,14.93
2023-01-27T14:56:20.306Z,16.43
2023-01-27T14:58:55.866Z,15.33
2023-01-27T15:01:45.573Z,16.47
2023-01-27T15:04:44.184Z,15.57
2023-01-27T15:07:20.707Z,13.43
2023-01-27T15:10:21.322Z,15.43
2023-01-27T15:13:24.017Z,14.30
2023-01-27T15:15:59.704Z,16.43
2023-01-27T15:18:35.183Z,16.47
2023-01-27T15:21:24.515Z,14.00
2023-01-27T15:24:25.405Z,14.60
2023-01-27T15:26:54.204Z,17.10
2023-01-27T15:29:25.734Z,16.23
2023-01-27T15:32:15.499Z,15.20
2023-01-27T15:34:45.242Z,14.67
2023-01-27T15:37:28.094Z,14.70
2023-01-27T15:40:08.233Z,14.50
2023-01-27T15:42:52.258Z,14.00
2023-01-27T15:45:30.904Z,15.53
2023-01-27T15:48:00.351Z,13.60
2023-01-27T15:50:30.962Z,13.47
2023-01-27T15:53:14.200Z,13.30
2023-01-27T15:55:53.188Z,14.57
2023-01-27T15:58:32.755Z,12.23
2023-01-27T16:01:00.610Z,12.63
2023-01-27T16:03:29.611Z,14.10
2023-01-27T16:06:09.591Z,14.23
2023-01-27T16:08:48.703Z,14.73
2023-01-27T16:11:38.164Z,15.73
2023-01-27T16:14:36.952Z,13.43
2023-01-27T16:17:17.851Z,12.63
2023-01-27T16:19:55.484Z,14.03
2023-01-27T16:22:23.599Z,13.63
2023-01-27T16:24:56.886Z,12.77
2023-01-27T16:27:48.125Z,13.80
2023-01-27T16:30:20.163Z,12.57
2023-01-27T16:33:00.024Z,11.83
2023-01-27T16:35:27.149Z,15.27
2023-01-27T16:38:25.742Z,13.53
2023-01-27T16:40:59.172Z,14.83
2023-01-27T16:43:51.450Z,15.43
2023-01-27T16:46:36.409Z,15.43
2023-01-27T16:49:11.969Z,13.83
2023-01-27T16:51:38.948Z,12.60
2023-01-27T16:54:21.335Z,13.80
2023-01-27T16:56:51.394Z,12.10
2023-01-27T16:59:24.654Z,17.40
2023-01-27T17:02:02.489Z,14.37
2023-01-27T17:04:31.543Z,16.33
2023-01-27T17:07:09.354Z,12.97
2023-01-27T17:09:41.992Z,12.23
2023-01-27T17:12:27.285Z,13.03
2023-01-27T17:14:54.215Z,14.17
2023-01-27T17:17:23.309Z,13.50
2023-01-27T17:19:52.404Z,13.63
2023-01-27T17:22:26.085Z,15.30
2023-01-27T17:24:55.517Z,13.07
2023-01-27T17:27:36.642Z,14.27
2023-01-27T17:30:18.543Z,12.27
2023-01-27T17:32:50.906Z,13.70
2023-01-27T17:35:23.464Z,11.77
2023-01-27T17:37:50.984Z,12.63
2023-01-27T17:40:22.565Z,13.37
2023-01-27T17:42:49.928Z,11.67
2023-01-27T17:45:32.011Z,13.97
2023-01-27T17:48:00.473Z,12.30
2023-01-27T17:50:53.393Z,10.00
2023-01-27T17:53:24.625Z,11.80
2023-01-27T17:55:52.286Z,14.10
2023-01-27T17:58:25.219Z,18.70
2023-01-27T18:00:52.842Z,21.43
2023-01-27T18:03:38.864Z,30.57
2023-01-27T18:06:07.633Z,12.43
2023-01-27T18:08:35.149Z,11.83
2023-01-27T18:11:20.573Z,10.63
2023-01-27T18:13:52.912Z,12.00
2023-01-27T18:16:21.455Z,10.87
2023-01-27T18:18:50.437Z,12.43
2023-01-27T18:21:27.442Z,12.03
2023-01-27T18:23:56.325Z,12.10
2023-01-27T18:26:26.789Z,15.20
2023-01-27T18:29:02.891Z,11.93
2023-01-27T18:31:34.343Z,10.93
2023-01-27T18:34:05.290Z,11.07
2023-01-27T18:36:35.818Z,10.07
2023-01-27T18:39:27.144Z,10.70
2023-01-27T18:41:54.659Z,10.17
2023-01-27T18:44:34.050Z,11.63
2023-01-27T18:47:18.146Z,11.83
2023-01-27T18:49:49.201Z,12.63
2023-01-27T18:52:16.296Z,12.57
2023-01-27T18:54:43.060Z,11.03
2023-01-27T18:57:09.713Z,14.17
2023-01-27T18:59:36.334Z,12.07
2023-01-27T19:02:05.388Z,12.73
2023-01-27T19:04:32.469Z,11.47
2023-01-27T19:07:00.197Z,13.07
2023-01-27T19:09:26.771Z,10.87
2023-01-27T19:11:56.622Z,13.70
2023-01-27T19:14:23.173Z,12.73
2023-01-27T19:16:49.822Z,11.27
2023-01-27T19:19:16.435Z,12.83
2023-01-27T19:21:42.991Z,11.90
2023-01-27T19:24:10.975Z,12.50
2023-01-27T19:26:37.625Z,13.57
2023-01-27T19:29:04.204Z,14.47
2023-01-27T19:31:30.800Z,12.83
2023-01-27T19:33:57.918Z,13.60
2023-01-27T19:36:30.573Z,12.07
2023-01-27T19:39:10.471Z,11.90
2023-01-27T19:41:37.137Z,13.60
2023-01-27T19:44:03.764Z,14.10
2023-01-27T19:46:32.201Z,12.47
2023-01-27T19:48:58.748Z,13.17
2023-01-27T19:51:26.838Z,12.77
2023-01-27T19:53:53.406Z,10.87
2023-01-27T19:56:21.995Z,13.90
2023-01-27T19:58:53.472Z,12.47
2023-01-27T20:01:21.763Z,16.10
2023-01-27T20:03:49.391Z,13.63
2023-01-27T20:06:18.588Z,15.27
2023-01-27T20:08:45.320Z,15.73
2023-01-27T20:11:42.525Z,16.63
2023-01-27T20:14:15.250Z,16.20
2023-01-27T20:16:43.036Z,16.07
2023-01-27T20:19:11.083Z,16.30
2023-01-27T20:21:37.627Z,16.77
2023-01-27T20:24:04.528Z,15.07
2023-01-27T20:26:32.491Z,15.60
2023-01-27T20:28:59.568Z,16.60
2023-01-27T20:31:26.525Z,13.23
2023-01-27T20:33:53.185Z,16.17
2023-01-27T20:36:22.787Z,16.13
2023-01-27T20:38:50.577Z,15.67
2023-01-27T20:41:22.642Z,16.77
2023-01-27T20:43:54.092Z,13.97
2023-01-27T20:46:20.900Z,15.93
2023-01-27T20:48:47.808Z,15.80
2023-01-27T20:51:15.634Z,16.30
2023-01-27T20:53:45.485Z,14.30
2023-01-27T20:56:18.162Z,14.43
2023-01-27T20:58:45.374Z,12.33
2023-01-27T21:01:15.140Z,13.40
2023-01-27T21:03:42.579Z,15.60
2023-01-27T21:06:11.503Z,11.90
2023-01-27T21:08:38.478Z,13.43
2023-01-27T21:11:07.354Z,14.10
2023-01-27T21:13:34.052Z,13.63
2023-01-27T21:16:02.031Z,12.90
2023-01-27T21:18:29.174Z,12.73
2023-01-27T21:20:59.360Z,11.07
2023-01-27T21:23:27.931Z,15.73
2023-01-27T21:25:54.827Z,12.60
2023-01-27T21:28:22.043Z,12.13
2023-01-27T21:30:48.951Z,12.10
2023-01-27T21:33:15.543Z,15.13
2023-01-27T21:35:42.093Z,13.07
2023-01-27T21:38:08.707Z,13.23
2023-01-27T21:40:35.487Z,12.30
2023-01-27T21:43:20.703Z,11.20
2023-01-27T21:45:58.291Z,11.20
2023-01-27T21:48:24.922Z,10.03
2023-01-27T21:50:51.950Z,10.90
2023-01-27T21:53:18.760Z,9.93
2023-01-27T21:55:45.308Z,11.80
2023-01-27T21:58:11.882Z,7.60
2023-01-27T22:00:38.465Z,9.30
2023-01-27T22:03:05.117Z,8.40
2023-01-27T22:05:35.567Z,8.73
2023-01-27T22:08:02.227Z,9.13
2023-01-27T22:10:30.000Z,8.57
2023-01-27T22:13:02.081Z,9.23
2023-01-27T22:15:28.895Z,8.57
2023-01-27T22:17:58.963Z,9.07
2023-01-27T22:20:26.491Z,9.13
2023-01-27T22:22:53.085Z,9.13
2023-01-27T22:25:20.135Z,7.43
2023-01-27T22:27:47.050Z,8.77
2023-01-27T22:30:15.781Z,8.73
2023-01-27T22:32:42.465Z,7.17
2023-01-27T22:35:09.820Z,8.20
2023-01-27T22:37:37.687Z,8.40
2023-01-27T22:40:06.375Z,9.00
2023-01-27T22:42:33.380Z,8.63
2023-01-27T22:45:00.018Z,8.30
2023-01-27T22:47:26.892Z,7.80
2023-01-27T22:49:53.447Z,7.50
2023-01-27T22:52:20.030Z,8.17
2023-01-27T22:54:46.680Z,8.27
2023-01-27T22:57:13.302Z,9.37
2023-01-27T22:59:39.873Z,6.50
2023-01-27T23:02:06.457Z,7.13
2023-01-27T23:04:33.201Z,6.40
2023-01-27T23:06:59.777Z,8.93
2023-01-27T23:09:26.417Z,8.77
2023-01-27T23:11:53.045Z,8.10
2023-01-27T23:14:20.144Z,7.00
2023-01-27T23:16:46.986Z,6.60
2023-01-27T23:19:13.569Z,7.73
2023-01-27T23:21:40.107Z,7.20
2023-01-27T23:24:07.785Z,6.83
2023-01-27T23:26:34.646Z,6.53
2023-01-27T23:29:01.211Z,7.10
2023-01-27T23:31:27.922Z,7.40
2023-01-27T23:33:54.556Z,8.07
2023-01-27T23:36:21.233Z,6.13
2023-01-27T23:38:48.068Z,8.20
2023-01-27T23:41:18.259Z,6.53
2023-01-27T23:43:45.634Z,6.63
2023-01-27T23:46:13.440Z,6.57
2023-01-27T23:48:40.061Z,6.43
2023-01-27T23:51:12.844Z,7.17
2023-01-27T23:53:39.493Z,7.37
2023-01-27T23:56:07.029Z,7.33
2023-01-27T23:58:33.596Z,6.50
